EBCI/CRL METAR and TAF weather

Enter ICAO airport designator
Station Type Date Time Source
EBCI METAR 2019/02/21 11:50 UTC NOAA

EBCI 211150Z 25007KT 220V300 9999 FEW023 12/06 Q1028 NOSIG


Station Type Date Time Source
EBCI Decoded METAR 2019/02/21 11:50 UTC NOAA

Charleroi / Gosselies, Belgium (EBCI) 50-28N 004-27E 192M
Feb 21, 2019 - 06:50 AM EST / 2019.02.21 1150 UTC
Wind: from the WSW (250 degrees) at 8 MPH (7 KT) (direction variable):0
Visibility: greater than 7 mile(s):0
Sky conditions: mostly clear
Temperature: 53 F (12 C)
Dew Point: 42 F (6 C)
Relative Humidity: 66%
Pressure (altimeter): 30.36 in. Hg (1028 hPa)
ob: EBCI 211150Z 25007KT 220V300 9999 FEW023 12/06 Q1028 NOSIG
cycle: 12

Station Type Date Time Source
EBCI TAF 2019/02/21 12:27 UTC NOAA

TAF EBCI 211100Z 2112/2218 24008KT 9999 FEW020
BECMG 2119/2121 BKN005
TEMPO 2121/2218 3000 BR BKN003 PROB40
TEMPO 2202/2209 0200 FG BKN001


Example: see airport list